CheckWX is a tool to help pilots better visualize weather data.  It is not intended as a substitute for an official pre-flight weather briefing.

21:10:36 UTC

CWSW METAR
Sparwood / Elk Valley Airport
Sparwood/Elk Valley, Canada
Current

1 hour ago

CWSW 232000Z 16011G19KT 15SM FEW018 FEW025 BKN036 BKN050 02/M01 A3004 RMK SF1CU1CU6CU1 SF TR CU TR SLP210
Observed
Jan-23 @ 20:00 UTC
Wind
  • 160° at 11 KTS
  • Gusting to 19 KTS
Visibility
15 SM
Flight Rules
VFR
Cloud Levels
  • Few at 1,800' AGL
  • Few at 2,500' AGL
  • Broken at 3,600' AGL
  • Broken at 5,000' AGL
Temperature
C / 36°F
Dewpoint
-1°C / 30°F
Humidity
81%
Altimeter
30.04" Hg
Pressure
1017.32 hPa
Previous

2 hours ago

CWSW 231919Z 15010G21KT 120V200 15SM FEW017 FEW029 BKN036 BKN050 02/M01 A3004 RMK SF1CU2CU5CU1 SF TR CU TR SLP213
Observed
Jan-23 @ 19:19 UTC
Wind
  • 150° at 10 KTS
  • Gusting to 21 KTS
Visibility
15 SM
Flight Rules
VFR
Cloud Levels
  • Few at 1,700' AGL
  • Few at 2,900' AGL
  • Broken at 3,600' AGL
  • Broken at 5,000' AGL
Temperature
C / 36°F
Dewpoint
-1°C / 30°F
Humidity
81%
Altimeter
30.04" Hg
Pressure
1017.32 hPa
Previous

2 hours ago

CWSW 231900Z 15013G24KT 120V200 15SM -SHSN FEW017 BKN030 BKN050 02/M01 A3005 RMK SF1CU7CU1 SF TR CU TR SLP214
Observed
Jan-23 @ 19:00 UTC
Wind
  • 150° at 13 KTS
  • Gusting to 24 KTS
Visibility
15 SM
Flight Rules
MVFR
Conditions
Light Snow
Cloud Levels
  • Few at 1,700' AGL
  • Broken at 3,000' AGL
  • Broken at 5,000' AGL
Temperature
C / 36°F
Dewpoint
-1°C / 30°F
Humidity
81%
Altimeter
30.05" Hg
Pressure
1017.62 hPa